createdAt,value
2017-08-08T00:02:28.234Z,14.80
2017-08-08T00:04:56.799Z,14.80
2017-08-08T00:07:24.654Z,14.80
2017-08-08T00:09:52.465Z,14.70
2017-08-08T00:12:20.280Z,14.70
2017-08-08T00:14:48.136Z,14.80
2017-08-08T00:17:15.939Z,14.80
2017-08-08T00:19:43.744Z,14.80
2017-08-08T00:22:11.599Z,14.80
2017-08-08T00:24:39.399Z,14.70
2017-08-08T00:27:07.209Z,14.70
2017-08-08T00:29:35.071Z,14.60
2017-08-08T00:32:02.866Z,14.60
2017-08-08T00:34:30.662Z,14.60
2017-08-08T00:36:59.296Z,14.60
2017-08-08T00:39:27.087Z,14.60
2017-08-08T00:41:54.893Z,14.60
2017-08-08T00:44:22.728Z,14.50
2017-08-08T00:46:50.536Z,14.50
2017-08-08T00:49:18.346Z,14.60
2017-08-08T00:51:46.190Z,14.50
2017-08-08T00:54:14.011Z,14.50
2017-08-08T00:56:41.817Z,14.40
2017-08-08T00:59:09.648Z,14.40
2017-08-08T01:01:37.447Z,14.40
2017-08-08T01:04:05.262Z,14.30
2017-08-08T01:06:33.096Z,14.30
2017-08-08T01:09:01.664Z,14.30
2017-08-08T01:11:29.475Z,14.30
2017-08-08T01:13:57.363Z,14.40
2017-08-08T01:16:25.160Z,14.40
2017-08-08T01:18:53.732Z,14.20
2017-08-08T01:21:21.562Z,14.20
2017-08-08T01:23:49.370Z,14.20
2017-08-08T01:26:17.951Z,14.20
2017-08-08T01:28:46.552Z,14.20
2017-08-08T01:31:14.392Z,14.20
2017-08-08T01:33:43.031Z,14.20
2017-08-08T01:36:10.916Z,14.10
2017-08-08T01:38:38.736Z,14.20
2017-08-08T01:41:06.596Z,14.20
2017-08-08T01:43:34.410Z,14.10
2017-08-08T01:46:02.271Z,14.10
2017-08-08T01:48:30.078Z,14.00
2017-08-08T01:50:57.933Z,14.00
2017-08-08T01:53:26.551Z,14.00
2017-08-08T01:55:54.380Z,14.00
2017-08-08T01:58:22.263Z,13.90
2017-08-08T02:00:50.160Z,13.90
2017-08-08T02:03:18.000Z,13.90
2017-08-08T02:05:45.855Z,13.90
2017-08-08T02:08:13.668Z,13.80
2017-08-08T02:10:41.569Z,13.80
2017-08-08T02:13:09.390Z,13.80
2017-08-08T02:15:37.244Z,13.80
2017-08-08T02:18:05.091Z,13.70
2017-08-08T02:20:32.929Z,13.70
2017-08-08T02:23:00.832Z,13.70
2017-08-08T02:25:28.658Z,13.70
2017-08-08T02:27:56.497Z,13.70
2017-08-08T02:30:24.404Z,13.70
2017-08-08T02:32:52.248Z,13.70
2017-08-08T02:35:20.142Z,13.70
2017-08-08T02:37:47.968Z,13.70
2017-08-08T02:40:15.824Z,13.70
2017-08-08T02:42:44.423Z,13.60
2017-08-08T02:45:12.231Z,13.50
2017-08-08T02:47:40.095Z,13.60
2017-08-08T02:50:07.893Z,13.50
2017-08-08T02:52:36.463Z,13.50
2017-08-08T02:55:04.304Z,13.50
2017-08-08T02:57:32.107Z,13.50
2017-08-08T02:59:59.984Z,13.60
2017-08-08T03:02:27.785Z,13.60
2017-08-08T03:04:55.587Z,13.60
2017-08-08T03:07:24.191Z,13.50
2017-08-08T03:09:51.992Z,13.50
2017-08-08T03:12:19.854Z,13.50
2017-08-08T03:14:47.659Z,13.50
2017-08-08T03:17:15.466Z,13.50
2017-08-08T03:19:43.302Z,13.40
2017-08-08T03:22:11.100Z,13.40
2017-08-08T03:24:38.959Z,13.40
2017-08-08T03:27:06.751Z,13.40
2017-08-08T03:29:35.017Z,13.40
2017-08-08T03:32:02.868Z,13.30
2017-08-08T03:34:30.671Z,13.30
2017-08-08T03:36:58.537Z,13.20
2017-08-08T03:39:26.354Z,13.20
2017-08-08T03:41:54.191Z,13.20
2017-08-08T03:44:22.071Z,13.20
2017-08-08T03:46:49.923Z,13.20
2017-08-08T03:49:17.820Z,13.20
2017-08-08T03:51:45.661Z,13.30
2017-08-08T03:54:13.500Z,13.30
2017-08-08T03:56:41.332Z,13.30
2017-08-08T03:59:09.892Z,13.50
2017-08-08T04:01:37.754Z,13.50
2017-08-08T04:04:05.583Z,13.60
2017-08-08T04:06:34.322Z,13.60
2017-08-08T04:09:02.990Z,13.80
2017-08-08T04:11:30.791Z,13.70
2017-08-08T04:13:58.655Z,13.90
2017-08-08T04:16:26.460Z,14.00
2017-08-08T04:18:54.258Z,14.10
2017-08-08T04:21:22.869Z,14.60
2017-08-08T04:23:50.683Z,14.50
2017-08-08T04:26:18.536Z,14.80
2017-08-08T04:28:46.331Z,15.20
2017-08-08T04:31:14.884Z,16.10
2017-08-08T04:33:42.719Z,16.10
2017-08-08T04:36:10.530Z,16.60
2017-08-08T04:38:39.168Z,17.10
2017-08-08T04:41:06.995Z,17.00
2017-08-08T04:43:34.796Z,17.20
2017-08-08T04:46:02.619Z,17.10
2017-08-08T04:48:30.431Z,17.10
2017-08-08T04:50:58.284Z,16.90
2017-08-08T04:53:26.107Z,16.90
2017-08-08T04:55:53.896Z,16.90
2017-08-08T04:58:21.725Z,16.80
2017-08-08T05:00:50.323Z,17.10
2017-08-08T05:03:18.340Z,17.10
2017-08-08T05:05:46.408Z,17.20
2017-08-08T05:08:14.358Z,17.40
2017-08-08T05:10:42.206Z,17.70
2017-08-08T05:13:10.041Z,17.80
2017-08-08T05:15:37.931Z,18.00
2017-08-08T05:18:05.815Z,17.90
2017-08-08T05:20:33.606Z,18.00
2017-08-08T05:23:01.436Z,18.20
2017-08-08T05:25:29.262Z,18.60
2017-08-08T05:27:57.138Z,18.90
2017-08-08T05:30:24.947Z,19.50
2017-08-08T05:32:52.771Z,20.20
2017-08-08T05:35:20.609Z,20.90
2017-08-08T05:37:48.410Z,21.90
2017-08-08T05:40:16.275Z,22.50
2017-08-08T05:42:44.148Z,22.70
2017-08-08T05:45:11.983Z,23.10
2017-08-08T05:47:39.827Z,23.80
2017-08-08T05:50:07.645Z,24.00
2017-08-08T05:52:35.519Z,24.00
2017-08-08T05:55:03.418Z,24.10
2017-08-08T05:57:31.269Z,24.90
2017-08-08T05:59:59.880Z,25.60
2017-08-08T06:02:27.680Z,25.60
2017-08-08T06:04:55.581Z,26.40
2017-08-08T06:07:24.147Z,26.90
2017-08-08T06:09:51.955Z,26.80
2017-08-08T06:12:19.789Z,26.20
2017-08-08T06:14:47.600Z,26.80
2017-08-08T06:17:15.459Z,27.00
2017-08-08T06:19:43.263Z,28.10
2017-08-08T06:22:11.085Z,27.90
2017-08-08T06:24:38.916Z,28.60
2017-08-08T06:27:06.745Z,29.00
2017-08-08T06:29:34.603Z,29.90
2017-08-08T06:32:02.408Z,29.80
2017-08-08T06:34:30.212Z,30.30
2017-08-08T06:36:58.037Z,30.30
2017-08-08T06:39:25.852Z,29.90
2017-08-08T06:41:53.716Z,29.50
2017-08-08T06:44:21.528Z,29.40
2017-08-08T06:46:49.331Z,28.80
2017-08-08T06:49:17.167Z,29.90
2017-08-08T06:51:44.974Z,31.00
2017-08-08T06:54:13.617Z,29.60
2017-08-08T06:56:41.427Z,29.60
2017-08-08T06:59:10.063Z,30.10
2017-08-08T07:01:37.922Z,30.10
2017-08-08T07:04:05.732Z,30.10
2017-08-08T07:06:34.375Z,32.40
2017-08-08T07:09:02.202Z,32.30
2017-08-08T07:11:30.018Z,31.70
2017-08-08T07:13:57.864Z,31.80
2017-08-08T07:16:25.675Z,33.70
2017-08-08T07:18:54.311Z,31.80
2017-08-08T07:21:22.137Z,31.70
2017-08-08T07:23:49.939Z,30.50
2017-08-08T07:26:17.786Z,31.70
2017-08-08T07:28:45.600Z,31.80
2017-08-08T07:31:14.242Z,32.70
2017-08-08T07:33:42.052Z,32.70
2017-08-08T07:36:10.639Z,31.60
2017-08-08T07:38:38.508Z,31.60
2017-08-08T07:41:06.335Z,31.90
2017-08-08T07:43:34.237Z,31.50
2017-08-08T07:46:02.054Z,31.20
2017-08-08T07:48:29.843Z,31.40
2017-08-08T07:50:58.443Z,32.60
2017-08-08T07:53:26.247Z,32.60
2017-08-08T07:55:54.116Z,33.40
2017-08-08T07:58:21.920Z,32.90
2017-08-08T08:00:50.487Z,32.60
2017-08-08T08:03:19.149Z,33.60
2017-08-08T08:05:46.967Z,33.60
2017-08-08T08:08:14.839Z,33.70
2017-08-08T08:10:42.641Z,33.80
2017-08-08T08:13:10.448Z,33.50
2017-08-08T08:15:38.333Z,32.50
2017-08-08T08:18:06.136Z,32.10
2017-08-08T08:20:33.992Z,32.70
2017-08-08T08:23:01.795Z,32.40
2017-08-08T08:25:29.603Z,31.70
2017-08-08T08:27:57.432Z,31.10
2017-08-08T08:30:25.241Z,31.50
2017-08-08T08:32:53.286Z,32.10
2017-08-08T08:35:21.161Z,32.40
2017-08-08T08:37:48.983Z,32.60
2017-08-08T08:40:16.833Z,32.40
2017-08-08T08:42:44.662Z,32.20
2017-08-08T08:45:12.544Z,32.20
2017-08-08T08:47:40.355Z,32.60
2017-08-08T08:50:08.163Z,33.60
2017-08-08T08:52:36.009Z,34.90
2017-08-08T08:55:03.813Z,35.10
2017-08-08T08:57:31.719Z,33.50
2017-08-08T08:59:59.529Z,33.30
2017-08-08T09:02:28.128Z,32.60
2017-08-08T09:04:55.968Z,32.60
2017-08-08T09:07:24.551Z,31.70
2017-08-08T09:09:53.200Z,32.00
2017-08-08T09:12:21.019Z,31.90
2017-08-08T09:14:48.841Z,32.30
2017-08-08T09:17:16.682Z,32.40
2017-08-08T09:19:44.502Z,32.60
2017-08-08T09:22:12.366Z,32.90
2017-08-08T09:24:40.176Z,32.60
2017-08-08T09:27:07.987Z,32.70
2017-08-08T09:29:35.848Z,32.90
2017-08-08T09:32:03.671Z,33.10
2017-08-08T09:34:31.545Z,31.40
2017-08-08T09:36:59.359Z,29.70
2017-08-08T09:39:27.191Z,28.10
2017-08-08T09:41:55.802Z,26.40
2017-08-08T09:44:23.599Z,26.30
2017-08-08T09:46:51.467Z,26.00
2017-08-08T09:49:19.267Z,25.80
2017-08-08T09:51:47.832Z,25.00
2017-08-08T09:54:15.659Z,25.00
2017-08-08T09:56:43.451Z,24.90
2017-08-08T09:59:11.320Z,24.80
2017-08-08T10:01:39.128Z,25.00
2017-08-08T10:04:06.943Z,25.10
2017-08-08T10:06:34.780Z,25.00
2017-08-08T10:09:02.643Z,24.90
2017-08-08T10:11:30.500Z,24.70
2017-08-08T10:13:58.291Z,24.90
2017-08-08T10:16:26.103Z,25.10
2017-08-08T10:18:53.943Z,24.80
2017-08-08T10:21:22.538Z,24.80
2017-08-08T10:23:50.394Z,24.70
2017-08-08T10:26:18.186Z,24.60
2017-08-08T10:28:45.991Z,24.90
2017-08-08T10:31:13.836Z,24.80
2017-08-08T10:33:41.626Z,25.10
2017-08-08T10:36:10.251Z,25.00
2017-08-08T10:38:38.047Z,25.00
2017-08-08T10:41:05.848Z,25.10
2017-08-08T10:43:34.454Z,25.20
2017-08-08T10:46:02.266Z,25.10
2017-08-08T10:48:30.139Z,25.00
2017-08-08T10:50:58.711Z,24.90
2017-08-08T10:53:26.508Z,24.80
2017-08-08T10:55:54.382Z,24.70
2017-08-08T10:58:22.197Z,25.00
2017-08-08T11:00:50.056Z,24.90
2017-08-08T11:03:17.855Z,24.90
2017-08-08T11:05:45.669Z,25.10
2017-08-08T11:08:13.500Z,25.10
2017-08-08T11:10:41.324Z,25.20
2017-08-08T11:13:09.947Z,25.20
2017-08-08T11:15:37.796Z,25.10
2017-08-08T11:18:05.612Z,25.10
2017-08-08T11:20:33.436Z,25.20
2017-08-08T11:23:01.232Z,25.30
2017-08-08T11:25:29.091Z,25.50
2017-08-08T11:27:56.889Z,25.70
2017-08-08T11:30:25.460Z,25.60
2017-08-08T11:32:53.301Z,25.60
2017-08-08T11:35:21.099Z,25.50
2017-08-08T11:37:49.728Z,25.30
2017-08-08T11:40:17.521Z,25.30
2017-08-08T11:42:45.330Z,25.50
2017-08-08T11:45:13.167Z,25.50
2017-08-08T11:47:41.738Z,25.50
2017-08-08T11:50:10.379Z,25.50
2017-08-08T11:52:38.191Z,25.50
2017-08-08T11:55:05.996Z,25.60
2017-08-08T11:57:33.840Z,25.70
2017-08-08T12:00:01.646Z,25.60
2017-08-08T12:02:29.498Z,25.60
2017-08-08T12:04:57.306Z,25.40
2017-08-08T12:07:25.880Z,25.60
2017-08-08T12:09:54.535Z,25.70
2017-08-08T12:12:22.344Z,25.70
2017-08-08T12:14:50.195Z,25.70
2017-08-08T12:17:18.004Z,25.60
2017-08-08T12:19:45.803Z,25.90
2017-08-08T12:22:13.634Z,26.20
2017-08-08T12:24:41.446Z,26.10
2017-08-08T12:27:10.089Z,26.20
2017-08-08T12:29:37.887Z,26.10
2017-08-08T12:32:06.463Z,26.00
2017-08-08T12:34:35.059Z,26.00
2017-08-08T12:37:02.863Z,26.00
2017-08-08T12:39:30.732Z,26.20
2017-08-08T12:41:58.538Z,26.20
2017-08-08T12:44:27.107Z,26.10
2017-08-08T12:46:54.945Z,26.10
2017-08-08T12:49:22.756Z,26.00
2017-08-08T12:51:51.406Z,26.20
2017-08-08T12:54:19.204Z,26.20
2017-08-08T12:56:47.011Z,26.20
2017-08-08T12:59:14.849Z,26.20
2017-08-08T13:01:42.676Z,26.10
2017-08-08T13:04:11.293Z,26.00
2017-08-08T13:06:39.095Z,25.90
2017-08-08T13:09:06.926Z,25.90
2017-08-08T13:11:34.771Z,26.00
2017-08-08T13:14:02.559Z,26.10
2017-08-08T13:16:30.415Z,26.10
2017-08-08T13:18:58.208Z,26.00
2017-08-08T13:21:26.014Z,25.90
2017-08-08T13:23:53.849Z,26.00
2017-08-08T13:26:21.660Z,26.10
2017-08-08T13:28:49.547Z,26.10
2017-08-08T13:31:17.360Z,26.10
2017-08-08T13:33:45.935Z,26.10
2017-08-08T13:36:14.542Z,26.20
2017-08-08T13:38:42.356Z,26.20
2017-08-08T13:41:10.220Z,26.40
2017-08-08T13:43:38.043Z,26.60
2017-08-08T13:46:05.843Z,26.40
2017-08-08T13:48:33.672Z,26.30
2017-08-08T13:51:01.483Z,26.20
2017-08-08T13:53:30.103Z,26.20
2017-08-08T13:55:57.917Z,26.20
2017-08-08T13:58:25.720Z,26.20
2017-08-08T14:00:53.563Z,26.40
2017-08-08T14:03:22.120Z,26.80
2017-08-08T14:05:50.004Z,26.70
2017-08-08T14:08:18.572Z,26.90
2017-08-08T14:10:46.388Z,26.80
2017-08-08T14:13:14.215Z,26.90
2017-08-08T14:15:42.776Z,26.60
2017-08-08T14:18:10.653Z,26.60
2017-08-08T14:20:39.216Z,26.50
2017-08-08T14:23:07.016Z,26.50
2017-08-08T14:25:34.846Z,26.60
2017-08-08T14:28:02.651Z,26.80
2017-08-08T14:30:30.517Z,26.90
2017-08-08T14:32:58.327Z,26.80
2017-08-08T14:35:26.122Z,27.00
2017-08-08T14:37:53.964Z,27.10
2017-08-08T14:40:22.519Z,27.00
2017-08-08T14:42:50.388Z,26.90
2017-08-08T14:45:18.190Z,26.90
2017-08-08T14:47:45.998Z,26.90
2017-08-08T14:50:13.838Z,26.80
2017-08-08T14:52:41.714Z,26.80
2017-08-08T14:55:09.587Z,26.80
2017-08-08T14:57:37.396Z,26.70
2017-08-08T15:00:05.971Z,26.60
2017-08-08T15:02:34.572Z,26.60
2017-08-08T15:05:02.373Z,26.60
2017-08-08T15:07:30.281Z,26.70
2017-08-08T15:09:58.087Z,26.60
2017-08-08T15:12:25.905Z,26.60
2017-08-08T15:14:54.507Z,26.50
2017-08-08T15:17:22.303Z,26.50
2017-08-08T15:19:50.162Z,26.50
2017-08-08T15:22:17.972Z,26.50
2017-08-08T15:24:46.559Z,26.40
2017-08-08T15:27:15.189Z,26.40
2017-08-08T15:29:42.991Z,26.40
2017-08-08T15:32:10.859Z,26.60
2017-08-08T15:34:39.444Z,26.80
2017-08-08T15:37:08.010Z,26.80
2017-08-08T15:39:35.840Z,26.70
2017-08-08T15:42:03.707Z,26.70
2017-08-08T15:44:31.571Z,26.70
2017-08-08T15:46:59.376Z,26.70
2017-08-08T15:49:27.952Z,26.80
2017-08-08T15:51:55.845Z,26.80
2017-08-08T15:54:23.643Z,26.80
2017-08-08T15:56:51.489Z,26.70
2017-08-08T15:59:19.283Z,26.60
2017-08-08T16:01:47.087Z,26.70
2017-08-08T16:04:15.684Z,26.90
2017-08-08T16:06:43.498Z,26.80
2017-08-08T16:09:11.375Z,27.00
2017-08-08T16:11:39.196Z,27.10
2017-08-08T16:14:06.993Z,27.10
2017-08-08T16:16:34.845Z,27.30
2017-08-08T16:19:02.674Z,27.40
2017-08-08T16:21:30.536Z,27.40
2017-08-08T16:23:58.464Z,27.30
2017-08-08T16:26:26.316Z,27.30
2017-08-08T16:28:54.155Z,27.20
2017-08-08T16:31:21.948Z,27.00
2017-08-08T16:33:50.627Z,26.90
2017-08-08T16:36:18.411Z,26.90
2017-08-08T16:38:46.974Z,27.00
2017-08-08T16:41:15.582Z,26.90
2017-08-08T16:43:43.395Z,26.90
2017-08-08T16:46:11.231Z,26.90
2017-08-08T16:48:39.025Z,26.80
2017-08-08T16:51:06.847Z,26.80
2017-08-08T16:53:34.683Z,26.80
2017-08-08T16:56:02.511Z,26.60
2017-08-08T16:58:30.423Z,26.60
2017-08-08T17:00:58.263Z,26.50
2017-08-08T17:03:26.085Z,26.40
2017-08-08T17:05:53.937Z,26.40
2017-08-08T17:08:21.797Z,26.20
2017-08-08T17:10:49.730Z,26.20
2017-08-08T17:13:17.604Z,26.10
2017-08-08T17:15:45.481Z,26.00
2017-08-08T17:18:13.308Z,25.90
2017-08-08T17:20:41.882Z,25.80
2017-08-08T17:23:10.535Z,25.70
2017-08-08T17:25:38.338Z,25.70
2017-08-08T17:28:07.071Z,25.60
2017-08-08T17:30:34.903Z,25.60
2017-08-08T17:33:02.705Z,25.50
2017-08-08T17:35:30.622Z,25.40
2017-08-08T17:37:59.183Z,25.30
2017-08-08T17:40:26.980Z,25.30
2017-08-08T17:42:54.804Z,25.20
2017-08-08T17:45:22.603Z,25.20
2017-08-08T17:47:50.459Z,25.10
2017-08-08T17:50:18.256Z,25.10
2017-08-08T17:52:46.072Z,25.00
2017-08-08T17:55:14.667Z,24.80
2017-08-08T17:57:42.480Z,24.70
2017-08-08T18:00:10.374Z,24.70
2017-08-08T18:02:38.935Z,24.70
2017-08-08T18:05:06.734Z,24.60
2017-08-08T18:07:34.555Z,24.50
2017-08-08T18:10:02.421Z,24.40
2017-08-08T18:12:30.277Z,24.30
2017-08-08T18:14:58.078Z,24.30
2017-08-08T18:17:25.883Z,24.30
2017-08-08T18:19:53.720Z,24.20
2017-08-08T18:22:21.515Z,24.20
2017-08-08T18:24:49.400Z,24.10
2017-08-08T18:27:17.405Z,24.00
2017-08-08T18:29:45.276Z,24.00
2017-08-08T18:32:13.118Z,23.90
2017-08-08T18:34:41.700Z,23.80
2017-08-08T18:37:10.336Z,23.70
2017-08-08T18:39:38.141Z,23.70
2017-08-08T18:42:06.903Z,23.60
2017-08-08T18:44:34.849Z,23.40
2017-08-08T18:47:02.667Z,23.40
2017-08-08T18:49:31.309Z,23.40
2017-08-08T18:51:59.106Z,23.30
2017-08-08T18:54:27.688Z,23.30
2017-08-08T18:56:56.310Z,23.20
2017-08-08T18:59:24.138Z,23.10
2017-08-08T19:01:52.023Z,23.10
2017-08-08T19:04:19.812Z,23.10
2017-08-08T19:06:47.777Z,23.00
2017-08-08T19:09:15.676Z,22.90
2017-08-08T19:11:43.504Z,22.90
2017-08-08T19:14:11.403Z,22.90
2017-08-08T19:16:39.980Z,22.80
2017-08-08T19:19:07.807Z,22.80
2017-08-08T19:21:35.634Z,22.70
2017-08-08T19:24:03.511Z,22.70
2017-08-08T19:26:31.419Z,22.70
2017-08-08T19:28:59.271Z,22.60
2017-08-08T19:31:27.078Z,22.50
2017-08-08T19:33:55.662Z,22.40
2017-08-08T19:36:24.254Z,22.40
2017-08-08T19:38:52.119Z,22.40
2017-08-08T19:41:19.918Z,22.40
2017-08-08T19:43:47.722Z,22.30
2017-08-08T19:46:16.321Z,22.20
2017-08-08T19:48:44.136Z,22.20
2017-08-08T19:51:11.992Z,22.10
2017-08-08T19:53:39.952Z,22.00
2017-08-08T19:56:07.757Z,22.00
2017-08-08T19:58:36.357Z,21.90
2017-08-08T20:01:04.208Z,21.90
2017-08-08T20:03:32.060Z,21.80
2017-08-08T20:06:00.624Z,21.70
2017-08-08T20:08:28.422Z,21.70
2017-08-08T20:10:56.253Z,21.60
2017-08-08T20:13:24.050Z,21.50
2017-08-08T20:15:51.895Z,21.40
2017-08-08T20:18:19.710Z,21.40
2017-08-08T20:20:47.511Z,21.40
2017-08-08T20:23:15.528Z,21.30
2017-08-08T20:25:43.322Z,21.30
2017-08-08T20:28:11.192Z,21.30
2017-08-08T20:30:38.993Z,21.40
2017-08-08T20:33:06.795Z,21.50
2017-08-08T20:35:34.641Z,21.50
2017-08-08T20:38:02.456Z,21.50
2017-08-08T20:40:30.275Z,21.50
2017-08-08T20:42:58.080Z,21.50
2017-08-08T20:45:25.996Z,21.50
2017-08-08T20:47:53.813Z,21.60
2017-08-08T20:50:22.392Z,21.70
2017-08-08T20:52:50.232Z,21.70
2017-08-08T20:55:18.040Z,21.70
2017-08-08T20:57:46.699Z,21.70
2017-08-08T21:00:14.491Z,21.70
2017-08-08T21:02:42.283Z,21.70
2017-08-08T21:05:10.135Z,21.70
2017-08-08T21:07:38.255Z,21.70
2017-08-08T21:10:06.112Z,21.70
2017-08-08T21:12:33.907Z,21.70
2017-08-08T21:15:01.702Z,21.70
2017-08-08T21:17:29.567Z,21.70
2017-08-08T21:19:57.383Z,21.60
2017-08-08T21:22:26.016Z,21.50
2017-08-08T21:24:53.803Z,21.50
2017-08-08T21:27:21.610Z,21.50
2017-08-08T21:29:49.459Z,21.30
2017-08-08T21:32:18.033Z,21.20
2017-08-08T21:34:46.667Z,21.20
2017-08-08T21:37:14.958Z,21.20
2017-08-08T21:39:42.780Z,21.10
2017-08-08T21:42:10.655Z,21.00
2017-08-08T21:44:38.482Z,20.90
2017-08-08T21:47:07.101Z,20.80
2017-08-08T21:49:34.960Z,20.80
2017-08-08T21:52:02.760Z,20.70
2017-08-08T21:54:30.762Z,20.70
2017-08-08T21:56:58.704Z,20.70
2017-08-08T21:59:26.591Z,20.60
2017-08-08T22:01:54.430Z,20.60
2017-08-08T22:04:22.233Z,20.50
2017-08-08T22:06:50.083Z,20.40
2017-08-08T22:09:17.925Z,20.40
2017-08-08T22:11:45.783Z,20.40
2017-08-08T22:14:13.572Z,20.40
2017-08-08T22:16:42.132Z,20.40
2017-08-08T22:19:09.975Z,20.30
2017-08-08T22:21:37.771Z,20.30
2017-08-08T22:24:06.415Z,20.20
2017-08-08T22:26:34.208Z,20.10
2017-08-08T22:29:02.782Z,20.20
2017-08-08T22:31:31.378Z,20.10
2017-08-08T22:33:59.935Z,20.10
2017-08-08T22:36:27.795Z,20.10
2017-08-08T22:38:55.583Z,20.10
2017-08-08T22:41:24.146Z,20.00
2017-08-08T22:43:52.757Z,20.00
2017-08-08T22:46:20.560Z,20.00
2017-08-08T22:48:48.427Z,20.00
2017-08-08T22:51:16.218Z,19.90
2017-08-08T22:53:44.024Z,19.90
2017-08-08T22:56:11.855Z,19.90
2017-08-08T22:58:39.669Z,19.90
2017-08-08T23:01:07.523Z,19.90
2017-08-08T23:03:35.339Z,19.90
2017-08-08T23:06:03.926Z,19.80
2017-08-08T23:08:32.514Z,19.80
2017-08-08T23:11:00.306Z,19.80
2017-08-08T23:13:28.168Z,19.80
2017-08-08T23:15:55.957Z,19.80
2017-08-08T23:18:23.748Z,19.80
2017-08-08T23:20:52.340Z,19.70
2017-08-08T23:23:20.966Z,19.60
2017-08-08T23:25:48.811Z,19.60
2017-08-08T23:28:16.612Z,19.60
2017-08-08T23:30:44.403Z,19.60
2017-08-08T23:33:13.001Z,19.50
2017-08-08T23:35:40.799Z,19.50
2017-08-08T23:38:08.666Z,19.40
2017-08-08T23:40:36.459Z,19.50
2017-08-08T23:43:04.259Z,19.40
2017-08-08T23:45:32.135Z,19.40
2017-08-08T23:47:59.941Z,19.40
2017-08-08T23:50:27.792Z,19.40
2017-08-08T23:52:55.648Z,19.30
2017-08-08T23:55:23.473Z,19.30
2017-08-08T23:57:51.315Z,19.30
